createdAt,value
2018-03-07T00:00:21.910Z,0.00
2018-03-07T00:01:21.926Z,0.00
2018-03-07T00:02:21.945Z,0.00
2018-03-07T00:03:21.965Z,0.00
2018-03-07T00:04:21.985Z,0.00
2018-03-07T00:05:21.999Z,0.00
2018-03-07T00:06:22.020Z,0.00
2018-03-07T00:07:22.045Z,0.00
2018-03-07T00:08:22.065Z,0.00
2018-03-07T00:09:22.078Z,0.00
2018-03-07T00:10:22.096Z,0.00
2018-03-07T00:11:22.124Z,0.00
2018-03-07T00:12:22.142Z,0.00
2018-03-07T00:13:22.156Z,0.00
2018-03-07T00:14:22.180Z,0.00
2018-03-07T00:15:22.196Z,0.00
2018-03-07T00:16:22.215Z,0.00
2018-03-07T00:17:22.235Z,0.00
2018-03-07T00:18:22.263Z,0.00
2018-03-07T00:19:22.281Z,0.00
2018-03-07T00:20:22.294Z,0.00
2018-03-07T00:21:22.319Z,0.00
2018-03-07T00:22:22.339Z,0.00
2018-03-07T00:23:22.353Z,0.00
2018-03-07T00:24:22.377Z,0.00
2018-03-07T00:25:22.391Z,0.00
2018-03-07T00:26:22.416Z,0.00
2018-03-07T00:27:22.432Z,0.00
2018-03-07T00:28:22.457Z,0.00
2018-03-07T00:29:22.469Z,0.00
2018-03-07T00:30:22.494Z,0.00
2018-03-07T00:31:22.512Z,0.00
2018-03-07T00:32:22.529Z,0.00
2018-03-07T00:33:22.547Z,0.00
2018-03-07T00:34:22.574Z,0.00
2018-03-07T00:35:22.594Z,0.00
2018-03-07T00:36:22.609Z,0.00
2018-03-07T00:37:22.634Z,0.00
2018-03-07T00:38:22.646Z,0.00
2018-03-07T00:39:22.672Z,0.00
2018-03-07T00:40:22.686Z,0.00
2018-03-07T00:41:22.712Z,0.00
2018-03-07T00:42:22.728Z,0.00
2018-03-07T00:43:22.755Z,0.00
2018-03-07T00:44:22.765Z,0.00
2018-03-07T00:45:22.790Z,0.00
2018-03-07T00:46:22.803Z,0.00
2018-03-07T00:47:22.830Z,0.00
2018-03-07T00:48:22.846Z,0.00
2018-03-07T00:49:22.862Z,0.00
2018-03-07T00:50:22.883Z,0.00
2018-03-07T00:51:22.902Z,0.00
2018-03-07T00:52:22.922Z,0.00
2018-03-07T00:53:22.946Z,0.00
2018-03-07T00:54:22.960Z,0.00
2018-03-07T00:55:22.987Z,0.00
2018-03-07T00:56:23.007Z,0.00
2018-03-07T00:57:23.020Z,0.00
2018-03-07T00:58:23.041Z,0.00
2018-03-07T00:59:23.065Z,0.00
2018-03-07T01:00:23.085Z,0.00
2018-03-07T01:01:23.098Z,0.00
2018-03-07T01:02:23.123Z,0.00
2018-03-07T01:03:23.137Z,0.00
2018-03-07T01:04:23.159Z,0.00
2018-03-07T01:05:23.182Z,0.00
2018-03-07T01:06:23.201Z,0.00
2018-03-07T01:07:23.223Z,0.00
2018-03-07T01:08:23.245Z,0.00
2018-03-07T01:09:23.262Z,0.00
2018-03-07T01:10:23.280Z,0.00
2018-03-07T01:11:23.295Z,0.00
2018-03-07T01:12:23.316Z,0.00
2018-03-07T01:13:23.340Z,0.00
2018-03-07T01:14:23.361Z,0.00
2018-03-07T01:15:23.385Z,0.00
2018-03-07T01:16:23.407Z,0.00
2018-03-07T01:17:23.420Z,0.00
2018-03-07T01:18:23.439Z,0.00
2018-03-07T01:19:23.465Z,0.00
2018-03-07T01:20:23.479Z,0.00
2018-03-07T01:21:23.503Z,0.00
2018-03-07T01:22:23.519Z,0.00
2018-03-07T01:23:23.543Z,0.00
2018-03-07T01:24:23.558Z,0.00
2018-03-07T01:25:23.582Z,0.00
2018-03-07T01:26:23.596Z,0.00
2018-03-07T01:27:23.617Z,0.00
2018-03-07T01:28:23.641Z,0.00
2018-03-07T01:29:23.655Z,0.00
2018-03-07T01:30:23.674Z,0.00
2018-03-07T01:31:23.703Z,0.00
2018-03-07T01:32:23.720Z,0.00
2018-03-07T01:33:23.740Z,0.00
2018-03-07T01:34:23.754Z,0.00
2018-03-07T01:35:23.778Z,0.00
2018-03-07T01:36:23.807Z,0.00
2018-03-07T01:37:23.812Z,0.00
2018-03-07T01:38:23.831Z,0.00
2018-03-07T01:39:23.857Z,0.00
2018-03-07T01:40:23.877Z,0.00
2018-03-07T01:41:23.890Z,0.00
2018-03-07T01:42:23.915Z,0.00
2018-03-07T01:43:23.929Z,0.00
2018-03-07T01:44:23.951Z,0.00
2018-03-07T01:45:23.974Z,0.00
2018-03-07T01:46:23.990Z,0.00
2018-03-07T01:47:24.016Z,0.00
2018-03-07T01:48:24.029Z,0.00
2018-03-07T01:49:24.049Z,0.00
2018-03-07T01:50:24.067Z,0.00
2018-03-07T01:51:24.093Z,0.00
2018-03-07T01:52:24.107Z,0.00
2018-03-07T01:53:24.133Z,0.00
2018-03-07T01:54:24.147Z,0.00
2018-03-07T01:55:24.172Z,0.00
2018-03-07T01:56:24.187Z,0.00
2018-03-07T01:57:24.210Z,0.00
2018-03-07T01:58:24.230Z,0.00
2018-03-07T01:59:24.252Z,0.00
2018-03-07T02:00:24.270Z,0.00
2018-03-07T02:01:24.283Z,0.00
2018-03-07T02:02:24.310Z,0.00
2018-03-07T02:03:24.323Z,0.00
2018-03-07T02:04:24.350Z,0.00
2018-03-07T02:05:24.368Z,0.00
2018-03-07T02:06:24.387Z,0.00
2018-03-07T02:07:24.403Z,0.00
2018-03-07T02:08:24.431Z,0.00
2018-03-07T02:09:24.442Z,0.00
2018-03-07T02:10:24.466Z,0.00
2018-03-07T02:11:24.480Z,0.00
2018-03-07T02:12:24.507Z,0.00
2018-03-07T02:13:24.520Z,0.00
2018-03-07T02:14:24.544Z,0.00
2018-03-07T02:15:24.560Z,0.00
2018-03-07T02:16:24.584Z,0.00
2018-03-07T02:17:24.599Z,0.00
2018-03-07T02:18:24.618Z,0.00
2018-03-07T02:19:24.638Z,0.00
2018-03-07T02:20:24.665Z,0.00
2018-03-07T02:21:24.681Z,0.00
2018-03-07T02:22:24.697Z,0.00
2018-03-07T02:23:24.721Z,0.00
2018-03-07T02:24:24.741Z,0.00
2018-03-07T02:25:24.756Z,0.00
2018-03-07T02:26:24.776Z,0.00
2018-03-07T02:27:24.800Z,0.00
2018-03-07T02:28:24.820Z,0.00
2018-03-07T02:29:24.836Z,0.00
2018-03-07T02:30:24.854Z,0.00
2018-03-07T02:31:24.874Z,0.00
2018-03-07T02:32:24.899Z,0.00
2018-03-07T02:33:24.911Z,0.00
2018-03-07T02:34:24.934Z,0.00
2018-03-07T02:35:24.962Z,0.00
2018-03-07T02:36:24.979Z,0.00
2018-03-07T02:37:24.997Z,0.00
2018-03-07T02:38:25.016Z,0.00
2018-03-07T02:39:25.031Z,0.00
2018-03-07T02:40:25.052Z,0.00
2018-03-07T02:41:25.080Z,0.00
2018-03-07T02:42:25.096Z,0.00
2018-03-07T02:43:25.114Z,0.00
2018-03-07T02:44:25.130Z,0.00
2018-03-07T02:45:25.156Z,0.00
2018-03-07T02:46:25.170Z,0.00
2018-03-07T02:47:25.189Z,0.00
2018-03-07T02:48:25.208Z,0.00
2018-03-07T02:49:25.234Z,0.00
2018-03-07T02:50:25.246Z,0.00
2018-03-07T02:51:25.278Z,0.00
2018-03-07T02:52:25.285Z,0.00
2018-03-07T02:53:25.306Z,0.00
2018-03-07T02:54:25.326Z,0.00
2018-03-07T02:55:25.350Z,0.00
2018-03-07T02:56:25.372Z,0.00
2018-03-07T02:57:25.385Z,0.00
2018-03-07T02:58:25.405Z,0.00
2018-03-07T02:59:25.429Z,0.00
2018-03-07T03:00:25.450Z,0.00
2018-03-07T03:01:25.462Z,0.00
2018-03-07T03:02:25.482Z,0.00
2018-03-07T03:03:25.510Z,0.00
2018-03-07T03:04:25.529Z,0.00
2018-03-07T03:05:25.543Z,0.00
2018-03-07T03:06:25.567Z,0.00
2018-03-07T03:07:25.587Z,0.00
2018-03-07T03:08:25.606Z,0.00
2018-03-07T03:09:25.627Z,0.00
2018-03-07T03:10:25.640Z,0.00
2018-03-07T03:11:25.665Z,0.00
2018-03-07T03:12:25.680Z,0.00
2018-03-07T03:13:25.703Z,0.00
2018-03-07T03:14:25.717Z,0.00
2018-03-07T03:15:25.743Z,0.00
2018-03-07T03:16:25.757Z,0.00
2018-03-07T03:17:25.781Z,0.00
2018-03-07T03:18:25.801Z,0.00
2018-03-07T03:19:25.816Z,0.00
2018-03-07T03:20:25.841Z,0.00
2018-03-07T03:21:25.859Z,0.00
2018-03-07T03:22:25.873Z,0.00
2018-03-07T03:23:25.894Z,0.00
2018-03-07T03:24:25.914Z,0.00
2018-03-07T03:25:25.937Z,0.00
2018-03-07T03:26:25.956Z,0.00
2018-03-07T03:27:25.970Z,0.00
2018-03-07T03:28:25.996Z,0.00
2018-03-07T03:29:26.009Z,0.00
2018-03-07T03:30:26.038Z,0.00
2018-03-07T03:31:26.050Z,0.00
2018-03-07T03:32:26.074Z,0.00
2018-03-07T03:33:26.087Z,0.00
2018-03-07T03:34:26.105Z,0.00
2018-03-07T03:35:26.132Z,0.00
2018-03-07T03:36:26.145Z,0.00
2018-03-07T03:37:26.173Z,0.00
2018-03-07T03:38:26.182Z,0.00
2018-03-07T03:39:26.209Z,0.00
2018-03-07T03:40:26.223Z,0.00
2018-03-07T03:41:26.246Z,0.00
2018-03-07T03:42:26.266Z,0.00
2018-03-07T03:43:26.282Z,0.00
2018-03-07T03:44:26.305Z,0.00
2018-03-07T03:45:26.317Z,0.00
2018-03-07T03:46:26.343Z,0.00
2018-03-07T03:47:26.357Z,0.00
2018-03-07T03:48:26.384Z,0.00
2018-03-07T03:49:26.394Z,0.00
2018-03-07T03:50:26.415Z,0.00
2018-03-07T03:51:26.439Z,0.00
2018-03-07T03:52:26.459Z,0.00
2018-03-07T03:53:26.471Z,0.00
2018-03-07T03:54:26.492Z,0.00
2018-03-07T03:55:26.516Z,0.00
2018-03-07T03:56:26.535Z,0.00
2018-03-07T03:57:26.552Z,0.00
2018-03-07T03:58:26.568Z,0.00
2018-03-07T03:59:26.594Z,0.00
2018-03-07T04:00:26.607Z,0.00
2018-03-07T04:01:26.634Z,0.00
2018-03-07T04:02:26.645Z,0.00
2018-03-07T04:03:26.671Z,0.00
2018-03-07T04:04:26.684Z,0.00
2018-03-07T04:05:26.707Z,0.00
2018-03-07T04:06:26.722Z,0.00
2018-03-07T04:07:26.746Z,0.00
2018-03-07T04:08:26.767Z,0.00
2018-03-07T04:09:26.779Z,0.00
2018-03-07T04:10:26.797Z,0.00
2018-03-07T04:11:26.823Z,0.00
2018-03-07T04:12:26.843Z,0.00
2018-03-07T04:13:26.856Z,0.00
2018-03-07T04:14:26.880Z,0.00
2018-03-07T04:15:26.895Z,0.00
2018-03-07T04:16:26.914Z,0.00
2018-03-07T04:17:26.938Z,0.00
2018-03-07T04:18:26.958Z,0.00
2018-03-07T04:19:26.974Z,0.00
2018-03-07T04:20:26.990Z,0.00
2018-03-07T04:21:27.015Z,0.00
2018-03-07T04:22:27.035Z,0.00
2018-03-07T04:23:27.054Z,0.00
2018-03-07T04:24:27.073Z,0.00
2018-03-07T04:25:27.133Z,0.00
2018-03-07T04:26:27.112Z,0.00
2018-03-07T04:27:27.135Z,0.00
2018-03-07T04:28:27.151Z,0.00
2018-03-07T04:29:27.170Z,0.00
2018-03-07T04:30:27.189Z,0.00
2018-03-07T04:31:27.209Z,0.00
2018-03-07T04:32:27.228Z,0.00
2018-03-07T04:33:27.241Z,0.00
2018-03-07T04:34:27.261Z,0.00
2018-03-07T04:35:27.285Z,0.00
2018-03-07T04:36:27.305Z,0.00
2018-03-07T04:37:27.317Z,0.00
2018-03-07T04:38:27.338Z,0.00
2018-03-07T04:39:27.364Z,0.00
2018-03-07T04:40:27.377Z,0.00
2018-03-07T04:41:27.401Z,0.00
2018-03-07T04:42:27.415Z,0.00
2018-03-07T04:43:27.440Z,0.00
2018-03-07T04:44:27.455Z,0.00
2018-03-07T04:45:27.477Z,0.00
2018-03-07T04:46:27.492Z,0.00
2018-03-07T04:47:27.516Z,0.00
2018-03-07T04:48:27.530Z,0.00
2018-03-07T04:49:27.555Z,0.00
2018-03-07T04:50:27.569Z,0.00
2018-03-07T04:51:27.594Z,0.00
2018-03-07T04:52:27.608Z,0.00
2018-03-07T04:53:27.632Z,0.00
2018-03-07T04:54:27.646Z,0.00
2018-03-07T04:55:27.670Z,0.00
2018-03-07T04:56:27.690Z,0.00
2018-03-07T04:57:27.703Z,0.00
2018-03-07T04:58:27.723Z,0.00
2018-03-07T04:59:27.748Z,0.00
2018-03-07T05:00:27.767Z,0.00
2018-03-07T05:01:27.781Z,0.00
2018-03-07T05:02:27.800Z,0.00
2018-03-07T05:03:27.824Z,0.00
2018-03-07T05:04:27.847Z,0.00
2018-03-07T05:05:27.856Z,0.00
2018-03-07T05:06:27.880Z,0.00
2018-03-07T05:07:27.901Z,0.00
2018-03-07T05:08:27.921Z,0.00
2018-03-07T05:09:27.934Z,0.00
2018-03-07T05:10:27.954Z,0.00
2018-03-07T05:11:27.979Z,0.00
2018-03-07T05:12:27.998Z,0.00
2018-03-07T05:13:28.010Z,0.00
2018-03-07T05:14:28.030Z,0.00
2018-03-07T05:15:28.055Z,0.00
2018-03-07T05:16:28.074Z,0.00
2018-03-07T05:17:28.087Z,0.00
2018-03-07T05:18:28.107Z,0.00
2018-03-07T05:19:28.130Z,0.00
2018-03-07T05:20:28.151Z,0.00
2018-03-07T05:21:28.165Z,0.00
2018-03-07T05:22:28.187Z,0.00
2018-03-07T05:23:28.209Z,0.00
2018-03-07T05:24:28.230Z,0.00
2018-03-07T05:25:28.241Z,0.00
2018-03-07T05:26:28.267Z,0.00
2018-03-07T05:27:28.280Z,0.00
2018-03-07T05:28:28.305Z,0.00
2018-03-07T05:29:28.318Z,0.00
2018-03-07T05:30:28.342Z,0.00
2018-03-07T05:31:28.356Z,0.00
2018-03-07T05:32:28.381Z,0.00
2018-03-07T05:33:28.395Z,0.00
2018-03-07T05:34:28.419Z,0.00
2018-03-07T05:35:28.435Z,4.00
2018-03-07T05:36:28.458Z,4.00
2018-03-07T05:37:28.480Z,0.00
2018-03-07T05:38:28.499Z,4.00
2018-03-07T05:39:28.510Z,4.00
2018-03-07T05:40:28.536Z,4.00
2018-03-07T05:41:28.547Z,8.00
2018-03-07T05:42:28.572Z,4.00
2018-03-07T05:43:28.592Z,8.00
2018-03-07T05:44:28.612Z,12.00
2018-03-07T05:45:28.623Z,12.00
2018-03-07T05:46:28.648Z,12.00
2018-03-07T05:47:28.663Z,16.00
2018-03-07T05:48:28.690Z,20.00
2018-03-07T05:49:28.706Z,20.00
2018-03-07T05:50:28.720Z,24.00
2018-03-07T05:51:28.744Z,28.00
2018-03-07T05:52:28.759Z,32.00
2018-03-07T05:53:28.783Z,36.00
2018-03-07T05:54:28.796Z,44.00
2018-03-07T05:55:28.821Z,48.00
2018-03-07T05:56:28.835Z,56.00
2018-03-07T05:57:28.859Z,60.00
2018-03-07T05:58:28.872Z,68.00
2018-03-07T05:59:28.892Z,80.00
2018-03-07T06:00:28.920Z,88.00
2018-03-07T06:01:28.929Z,100.00
2018-03-07T06:02:28.948Z,108.00
2018-03-07T06:03:28.972Z,120.00
2018-03-07T06:04:28.991Z,132.00
2018-03-07T06:05:29.009Z,148.00
2018-03-07T06:06:29.028Z,164.00
2018-03-07T06:07:29.042Z,180.00
2018-03-07T06:08:29.066Z,196.00
2018-03-07T06:09:29.082Z,216.00
2018-03-07T06:10:29.102Z,240.00
2018-03-07T06:11:29.125Z,260.00
2018-03-07T06:12:29.142Z,284.00
2018-03-07T06:13:29.153Z,308.00
2018-03-07T06:14:29.177Z,332.00
2018-03-07T06:15:29.190Z,360.00
2018-03-07T06:16:29.217Z,392.00
2018-03-07T06:17:29.240Z,424.00
2018-03-07T06:18:29.247Z,460.00
2018-03-07T06:19:29.268Z,492.00
2018-03-07T06:20:29.294Z,532.00
2018-03-07T06:21:29.311Z,564.00
2018-03-07T06:22:29.325Z,604.00
2018-03-07T06:23:29.338Z,640.00
2018-03-07T06:24:29.358Z,680.00
2018-03-07T06:25:29.380Z,728.00
2018-03-07T06:26:29.399Z,776.00
2018-03-07T06:27:29.412Z,824.00
2018-03-07T06:28:29.430Z,876.00
2018-03-07T06:29:29.453Z,936.00
2018-03-07T06:30:29.472Z,996.00
2018-03-07T06:31:29.484Z,1064.00
2018-03-07T06:32:29.504Z,1140.00
2018-03-07T06:33:29.805Z,1220.00
2018-03-07T06:34:29.540Z,1308.00
2018-03-07T06:35:29.558Z,1396.00
2018-03-07T06:36:29.608Z,1496.00
2018-03-07T06:37:29.595Z,1588.00
2018-03-07T06:38:29.618Z,1684.00
2018-03-07T06:39:29.638Z,1780.00
2018-03-07T06:40:29.656Z,1876.00
2018-03-07T06:41:29.669Z,1976.00
2018-03-07T06:42:29.689Z,2084.00
2018-03-07T06:43:29.711Z,2180.00
2018-03-07T06:44:29.766Z,2288.00
2018-03-07T06:45:29.744Z,2396.00
2018-03-07T06:46:29.794Z,2508.00
2018-03-07T06:47:29.784Z,2624.00
2018-03-07T06:48:29.802Z,2720.00
2018-03-07T06:49:29.815Z,2812.00
2018-03-07T06:50:29.841Z,2912.00
2018-03-07T06:51:29.852Z,3052.00
2018-03-07T06:52:29.877Z,3172.00
2018-03-07T06:53:29.894Z,3332.00
2018-03-07T06:54:29.912Z,3576.00
2018-03-07T06:55:29.925Z,4028.00
2018-03-07T06:56:29.948Z,4220.00
2018-03-07T06:57:29.965Z,4220.00
2018-03-07T06:58:29.986Z,4416.00
2018-03-07T06:59:29.998Z,4504.00
2018-03-07T07:00:30.022Z,4584.00
2018-03-07T07:01:30.035Z,4644.00
2018-03-07T07:02:30.052Z,4716.00
2018-03-07T07:03:30.072Z,4784.00
2018-03-07T07:04:30.097Z,4804.00
2018-03-07T07:05:30.144Z,4676.00
2018-03-07T07:06:30.127Z,4652.00
2018-03-07T07:07:30.150Z,4744.00
2018-03-07T07:08:30.170Z,5232.00
2018-03-07T07:09:30.236Z,5588.00
2018-03-07T07:10:30.201Z,5652.00
2018-03-07T07:11:30.225Z,5720.00
2018-03-07T07:12:30.248Z,5844.00
2018-03-07T07:13:30.256Z,6016.00
2018-03-07T07:14:30.274Z,6092.00
2018-03-07T07:15:30.299Z,6020.00
2018-03-07T07:16:30.318Z,5748.00
2018-03-07T07:17:30.330Z,5544.00
2018-03-07T07:18:30.349Z,5592.00
2018-03-07T07:19:30.367Z,5992.00
2018-03-07T07:20:30.391Z,6260.00
2018-03-07T07:21:30.409Z,6304.00
2018-03-07T07:22:30.428Z,6376.00
2018-03-07T07:23:30.448Z,6460.00
2018-03-07T07:24:30.467Z,6620.00
2018-03-07T07:25:30.484Z,6760.00
2018-03-07T07:26:30.498Z,6912.00
2018-03-07T07:27:30.523Z,7080.00
2018-03-07T07:28:30.545Z,7228.00
2018-03-07T07:29:30.560Z,7388.00
2018-03-07T07:30:30.578Z,7480.00
2018-03-07T07:31:30.598Z,7560.00
2018-03-07T07:32:30.621Z,7696.00
2018-03-07T07:33:30.628Z,7844.00
2018-03-07T07:34:30.657Z,7912.00
2018-03-07T07:35:30.667Z,7984.00
2018-03-07T07:36:30.688Z,8080.00
2018-03-07T07:37:30.730Z,8172.00
2018-03-07T07:38:30.725Z,8264.00
2018-03-07T07:39:30.746Z,8332.00
2018-03-07T07:40:30.764Z,8328.00
2018-03-07T07:41:30.783Z,8264.00
2018-03-07T07:42:30.803Z,8260.00
2018-03-07T07:43:30.829Z,8332.00
2018-03-07T07:44:30.841Z,8264.00
2018-03-07T07:45:30.865Z,8140.00
2018-03-07T07:46:30.883Z,8072.00
2018-03-07T07:47:30.905Z,8012.00
2018-03-07T07:48:30.918Z,8008.00
2018-03-07T07:49:30.943Z,8088.00
2018-03-07T07:50:30.962Z,8208.00
2018-03-07T07:51:30.977Z,8372.00
2018-03-07T07:52:31.002Z,8520.00
2018-03-07T07:53:31.019Z,8700.00
2018-03-07T07:54:31.082Z,8828.00
2018-03-07T07:55:31.056Z,8928.00
2018-03-07T07:56:31.081Z,9032.00
2018-03-07T07:57:31.095Z,9096.00
2018-03-07T07:58:31.122Z,9200.00
2018-03-07T07:59:31.135Z,9276.00
2018-03-07T08:00:31.160Z,9332.00
2018-03-07T08:01:31.173Z,9400.00
2018-03-07T08:02:31.199Z,9472.00
2018-03-07T08:03:31.215Z,9540.00
2018-03-07T08:04:31.239Z,9608.00
2018-03-07T08:05:31.256Z,9668.00
2018-03-07T08:06:31.273Z,9788.00
2018-03-07T08:07:31.301Z,9872.00
2018-03-07T08:08:31.319Z,9964.00
2018-03-07T08:09:31.332Z,10076.00
2018-03-07T08:10:31.354Z,10160.00
2018-03-07T08:11:31.379Z,10280.00
2018-03-07T08:12:31.400Z,10424.00
2018-03-07T08:13:31.413Z,10576.00
2018-03-07T08:14:31.434Z,10712.00
2018-03-07T08:15:31.462Z,10816.00
2018-03-07T08:16:31.483Z,10836.00
2018-03-07T08:17:31.495Z,10800.00
2018-03-07T08:18:31.519Z,10832.00
2018-03-07T08:19:31.541Z,10892.00
2018-03-07T08:20:31.565Z,10992.00
2018-03-07T08:21:31.576Z,11096.00
2018-03-07T08:22:31.596Z,14808.00
2018-03-07T08:23:31.621Z,30592.00
2018-03-07T08:24:31.643Z,46016.00
2018-03-07T08:25:31.656Z,59648.00
2018-03-07T08:26:31.682Z,74016.00
2018-03-07T08:27:31.704Z,74496.00
2018-03-07T08:28:31.726Z,72864.00
2018-03-07T08:29:31.739Z,72736.00
2018-03-07T08:30:31.761Z,75168.00
2018-03-07T08:31:31.792Z,73536.00
2018-03-07T08:32:31.812Z,72768.00
2018-03-07T08:33:31.828Z,72160.00
2018-03-07T08:34:31.851Z,74240.00
2018-03-07T08:35:31.879Z,74048.00
2018-03-07T08:36:31.903Z,70720.00
2018-03-07T08:37:31.921Z,73312.00
2018-03-07T08:38:31.944Z,75648.00
2018-03-07T08:39:31.975Z,75424.00
2018-03-07T08:40:31.994Z,74912.00
2018-03-07T08:41:32.023Z,78048.00
2018-03-07T08:42:32.042Z,79872.00
2018-03-07T08:43:32.076Z,78592.00
2018-03-07T08:44:32.095Z,68768.00
2018-03-07T08:45:32.156Z,46176.00
2018-03-07T08:46:32.146Z,47936.00
2018-03-07T08:47:32.178Z,66496.00
2018-03-07T08:48:32.200Z,63424.00
2018-03-07T08:49:32.230Z,26240.00
2018-03-07T08:50:32.252Z,12328.00
2018-03-07T08:51:32.284Z,44288.00
2018-03-07T08:52:32.306Z,75104.00
2018-03-07T08:53:32.339Z,79200.00
2018-03-07T08:54:32.360Z,83392.00
2018-03-07T08:55:32.392Z,86592.00
2018-03-07T08:56:32.420Z,87232.00
2018-03-07T08:57:32.440Z,84192.00
2018-03-07T08:58:32.467Z,80672.00
2018-03-07T08:59:32.502Z,78656.00
2018-03-07T09:00:32.530Z,80864.00
2018-03-07T09:01:32.552Z,84992.00
2018-03-07T09:02:32.585Z,85664.00
2018-03-07T09:03:32.607Z,88736.00
2018-03-07T09:04:32.642Z,88000.00
2018-03-07T09:05:32.666Z,90400.00
2018-03-07T09:06:32.699Z,90272.00
2018-03-07T09:07:32.724Z,90528.00
2018-03-07T09:08:32.759Z,88256.00
2018-03-07T09:09:32.782Z,87680.00
2018-03-07T09:10:32.826Z,89344.00
2018-03-07T09:11:32.846Z,88960.00
2018-03-07T09:12:32.871Z,86400.00
2018-03-07T09:13:32.908Z,87936.00
2018-03-07T09:14:32.937Z,90688.00
2018-03-07T09:15:33.005Z,89280.00
2018-03-07T09:16:32.994Z,89856.00
2018-03-07T09:17:33.030Z,87072.00
2018-03-07T09:18:33.055Z,85728.00
2018-03-07T09:19:33.092Z,84992.00
2018-03-07T09:20:33.122Z,85184.00
2018-03-07T09:21:33.148Z,87968.00
2018-03-07T09:22:33.178Z,90464.00
2018-03-07T09:23:33.215Z,89088.00
2018-03-07T09:24:33.249Z,88928.00
2018-03-07T09:25:33.271Z,91168.00
2018-03-07T09:26:33.305Z,92128.00
2018-03-07T09:27:33.343Z,91840.00
2018-03-07T09:28:33.372Z,93344.00
2018-03-07T09:29:33.405Z,94496.00
2018-03-07T09:30:33.433Z,93504.00
2018-03-07T09:31:33.471Z,92192.00
2018-03-07T09:32:33.497Z,92576.00
2018-03-07T09:33:33.533Z,94752.00
2018-03-07T09:34:33.560Z,94304.00
2018-03-07T09:35:33.598Z,91424.00
2018-03-07T09:36:33.631Z,91808.00
2018-03-07T09:37:33.657Z,91264.00
2018-03-07T09:38:33.693Z,92736.00
2018-03-07T09:39:33.729Z,92256.00
2018-03-07T09:40:33.765Z,91520.00
2018-03-07T09:41:33.786Z,93408.00
2018-03-07T09:42:33.826Z,95232.00
2018-03-07T09:43:33.855Z,93824.00
2018-03-07T09:44:33.892Z,94272.00
2018-03-07T09:45:33.917Z,95968.00
2018-03-07T09:46:34.476Z,96448.00
2018-03-07T09:47:33.983Z,96672.00
2018-03-07T09:48:34.021Z,96800.00
2018-03-07T09:49:34.047Z,99136.00
2018-03-07T09:50:34.095Z,101312.00
2018-03-07T09:51:34.120Z,103008.00
2018-03-07T09:52:34.147Z,99840.00
2018-03-07T09:53:34.187Z,99968.00
2018-03-07T09:54:34.212Z,102976.00
2018-03-07T09:55:34.252Z,103680.00
2018-03-07T09:56:34.323Z,102144.00
2018-03-07T09:57:34.317Z,100672.00
2018-03-07T09:58:34.345Z,101024.00
2018-03-07T09:59:34.378Z,101344.00
2018-03-07T10:00:34.411Z,104192.00
2018-03-07T10:01:34.448Z,102336.00
2018-03-07T10:02:34.476Z,99232.00
2018-03-07T10:03:34.515Z,100416.00
2018-03-07T10:04:34.544Z,99456.00
2018-03-07T10:05:34.576Z,96960.00
2018-03-07T10:06:34.617Z,97664.00
2018-03-07T10:07:34.642Z,98240.00
2018-03-07T10:08:34.685Z,101536.00
2018-03-07T10:09:34.709Z,101792.00
2018-03-07T10:10:34.748Z,101280.00
2018-03-07T10:11:34.776Z,101792.00
2018-03-07T10:12:34.815Z,99392.00
2018-03-07T10:13:34.842Z,95520.00
2018-03-07T10:14:34.898Z,96160.00
2018-03-07T10:15:34.909Z,98656.00
2018-03-07T10:16:35.008Z,98432.00
2018-03-07T10:17:34.976Z,93696.00
2018-03-07T10:18:35.009Z,93056.00
2018-03-07T10:19:35.051Z,94496.00
2018-03-07T10:20:35.086Z,96128.00
2018-03-07T10:21:35.114Z,94176.00
2018-03-07T10:22:35.149Z,97920.00
2018-03-07T10:23:35.177Z,100896.00
2018-03-07T10:24:35.213Z,98368.00
2018-03-07T10:25:35.250Z,94688.00
2018-03-07T10:26:35.291Z,95264.00
2018-03-07T10:27:35.312Z,97536.00
2018-03-07T10:28:35.350Z,97440.00
2018-03-07T10:29:35.385Z,98592.00
2018-03-07T10:30:35.412Z,96096.00
2018-03-07T10:31:35.447Z,94656.00
2018-03-07T10:32:35.486Z,95040.00
2018-03-07T10:33:35.514Z,92832.00
2018-03-07T10:34:35.548Z,91488.00
2018-03-07T10:35:35.587Z,93472.00
2018-03-07T10:36:35.623Z,93408.00
2018-03-07T10:37:35.655Z,89824.00
2018-03-07T10:38:35.692Z,86208.00
2018-03-07T10:39:35.735Z,87648.00
2018-03-07T10:40:35.757Z,89216.00
2018-03-07T10:41:35.790Z,89280.00
2018-03-07T10:42:35.825Z,88128.00
2018-03-07T10:43:35.853Z,88256.00
2018-03-07T10:44:35.888Z,87776.00
2018-03-07T10:45:35.925Z,87456.00
2018-03-07T10:46:35.958Z,86240.00
2018-03-07T10:47:35.993Z,87200.00
2018-03-07T10:48:36.029Z,88192.00
2018-03-07T10:49:36.056Z,90912.00
2018-03-07T10:50:36.095Z,92416.00
2018-03-07T10:51:36.130Z,90400.00
2018-03-07T10:52:36.163Z,89856.00
2018-03-07T10:53:36.195Z,91872.00
2018-03-07T10:54:36.224Z,89312.00
2018-03-07T10:55:36.263Z,83328.00
2018-03-07T10:56:36.292Z,26688.00
2018-03-07T10:57:36.333Z,21664.00
2018-03-07T10:58:36.358Z,80096.00
2018-03-07T10:59:36.397Z,75136.00
2018-03-07T11:00:36.427Z,82176.00
2018-03-07T11:01:36.463Z,84800.00
2018-03-07T11:02:36.491Z,86752.00
2018-03-07T11:03:36.526Z,89120.00
2018-03-07T11:04:36.563Z,90016.00
2018-03-07T11:05:36.589Z,91552.00
2018-03-07T11:06:36.624Z,86944.00
2018-03-07T11:07:36.662Z,85376.00
2018-03-07T11:08:36.694Z,92448.00
2018-03-07T11:09:36.731Z,92448.00
2018-03-07T11:10:36.765Z,88288.00
2018-03-07T11:11:36.786Z,83232.00
2018-03-07T11:12:36.825Z,83168.00
2018-03-07T11:13:36.852Z,86176.00
2018-03-07T11:14:36.924Z,87328.00
2018-03-07T11:15:36.917Z,85760.00
2018-03-07T11:16:36.957Z,88896.00
2018-03-07T11:17:36.983Z,86112.00
2018-03-07T11:18:37.022Z,79968.00
2018-03-07T11:19:37.054Z,75648.00
2018-03-07T11:20:37.098Z,80576.00
2018-03-07T11:21:37.120Z,83776.00
2018-03-07T11:22:37.152Z,82816.00
2018-03-07T11:23:37.179Z,83040.00
2018-03-07T11:24:37.214Z,85568.00
2018-03-07T11:25:37.242Z,86752.00
2018-03-07T11:26:37.282Z,82336.00
2018-03-07T11:27:37.309Z,69312.00
2018-03-07T11:28:37.373Z,82848.00
2018-03-07T11:29:37.379Z,82112.00
2018-03-07T11:30:37.413Z,82272.00
2018-03-07T11:31:37.440Z,81472.00
2018-03-07T11:32:37.472Z,78688.00
2018-03-07T11:33:37.510Z,79712.00
2018-03-07T11:34:37.536Z,81216.00
2018-03-07T11:35:37.575Z,83296.00
2018-03-07T11:36:37.608Z,83648.00
2018-03-07T11:37:37.632Z,79808.00
2018-03-07T11:38:37.671Z,81568.00
2018-03-07T11:39:37.706Z,84256.00
2018-03-07T11:40:37.736Z,81984.00
2018-03-07T11:41:37.768Z,81856.00
2018-03-07T11:42:37.804Z,80384.00
2018-03-07T11:43:37.830Z,79136.00
2018-03-07T11:44:37.860Z,75136.00
2018-03-07T11:45:37.898Z,78496.00
2018-03-07T11:46:37.930Z,84000.00
2018-03-07T11:47:37.960Z,83872.00
2018-03-07T11:48:37.991Z,82880.00
2018-03-07T11:49:38.027Z,81760.00
2018-03-07T11:50:38.061Z,82688.00
2018-03-07T11:51:38.088Z,82368.00
2018-03-07T11:52:38.130Z,83552.00
2018-03-07T11:53:38.154Z,84160.00
2018-03-07T11:54:38.188Z,79360.00
2018-03-07T11:55:38.221Z,77152.00
2018-03-07T11:56:38.254Z,76352.00
2018-03-07T11:57:38.281Z,79904.00
2018-03-07T11:58:38.313Z,77536.00
2018-03-07T11:59:38.353Z,19904.00
2018-03-07T12:00:38.379Z,17608.00
2018-03-07T12:01:38.418Z,17632.00
2018-03-07T12:02:38.444Z,32064.00
2018-03-07T12:03:38.481Z,36352.00
2018-03-07T12:04:38.507Z,28320.00
2018-03-07T12:05:38.544Z,15764.00
2018-03-07T12:06:38.570Z,15132.00
2018-03-07T12:07:38.608Z,14196.00
2018-03-07T12:08:38.635Z,13712.00
2018-03-07T12:09:38.674Z,14388.00
2018-03-07T12:10:38.696Z,16260.00
2018-03-07T12:11:38.736Z,18592.00
2018-03-07T12:12:38.756Z,20928.00
2018-03-07T12:13:38.793Z,25344.00
2018-03-07T12:14:38.817Z,21856.00
2018-03-07T12:15:38.851Z,19328.00
2018-03-07T12:16:38.881Z,20032.00
2018-03-07T12:17:38.916Z,20448.00
2018-03-07T12:18:38.937Z,19488.00
2018-03-07T12:19:38.979Z,18400.00
2018-03-07T12:20:38.996Z,17632.00
2018-03-07T12:21:39.018Z,17280.00
2018-03-07T12:22:39.051Z,15460.00
2018-03-07T12:23:39.077Z,14728.00
2018-03-07T12:24:39.107Z,15564.00
2018-03-07T12:25:39.128Z,14492.00
2018-03-07T12:26:39.161Z,12664.00
2018-03-07T12:27:39.183Z,11944.00
2018-03-07T12:28:39.215Z,11252.00
2018-03-07T12:29:39.235Z,10560.00
2018-03-07T12:30:39.264Z,9976.00